Latest Weather Observations for Strahan

IDT60801

Issued at 11:02 am EDT Wednesday 4 March 2015 (issued every 30 minutes, with the page automatically refreshed every 10 minutes)

About weather observations | Map of weather stations | Latest weather observations for TAS | Other Formats
Station Details ID: 097072 Name: STRAHAN AERODROME Lat: -42.16 Lon: 145.29 Height: 21.0 m
Data from the previous 72 hours. | See also: Recent months at Strahan
Date/Time
EDT
Temp
°C
App
Temp
°C
Dew
Point
Rel
Hum
%
Delta-T
°C
Wind Press
QNH
hPa
Press
MSL
hPa
Rain
since 9 am
mm
Dir
 
Spd
km/h
Gust
km/h
Spd
kts
Gust
kts
04/11:00am 15.3 10.4 13.7 90 0.9 NW 32 43 17 23 1007.6 1007.6 1.2
04/10:47am 14.6 9.4 13.5 93 0.6 NW 33 46 18 25 1007.7 1007.7 1.2
04/10:30am 15.3 9.8 13.7 90 0.9 NW 35 46 19 25 1007.7 1007.7 1.2
04/10:12am 14.9 8.4 14.1 95 0.5 WNW 41 59 22 32 1007.7 1007.7 1.2
04/10:01am 14.2 7.0 13.7 97 0.3 NW 44 63 24 34 1007.6 1007.6 1.2
04/10:00am 14.2 7.0 13.6 96 0.3 NW 44 63 24 34 1007.6 1007.6 1.2
04/09:52am 14.3 8.8 13.7 96 0.3 NW 35 59 19 32 1007.4 1007.4 1.0
04/09:34am 14.8 9.8 13.3 91 0.8 NNW 32 46 17 25 1007.5 1007.5 0.2
04/09:30am 15.1 10.1 13.3 89 1.0 NNW 32 46 17 25 1007.5 1007.5 0.0
04/09:00am 14.7 9.0 12.9 89 1.0 NW 35 50 19 27 1007.9 1007.9 4.0
04/08:30am 14.6 9.6 13.3 92 0.7 NW 32 50 17 27 1007.6 1007.6 4.0
04/08:04am 13.8 8.7 13.2 96 0.3 NW 32 50 17 27 1007.7 1007.7 4.0
04/08:02am 13.8 8.5 13.0 95 0.4 NW 33 50 18 27 1007.8 1007.8 4.0
04/08:00am 13.8 8.1 13.0 95 0.4 NW 35 50 19 27 1007.9 1007.9 4.0
04/07:37am 14.2 8.2 12.2 88 1.1 NNW 35 52 19 28 1007.7 1007.7 1.8
04/07:33am 14.7 9.1 12.2 85 1.4 NNW 33 52 18 28 1007.5 1007.5 1.8
04/07:30am 14.6 9.0 12.1 85 1.4 NNW 33 50 18 27 1007.4 1007.4 1.8
04/07:00am 14.2 7.8 11.9 86 1.2 NNW 37 52 20 28 1007.2 1007.2 1.8
04/06:47am 14.3 8.8 12.3 88 1.1 NNW 33 52 18 28 1007.5 1007.5 1.8
04/06:30am 13.7 8.4 12.4 92 0.7 NNW 32 43 17 23 1007.4 1007.4 1.8
04/06:08am 12.9 7.8 12.0 94 0.5 NW 30 39 16 21 1007.7 1007.7 1.4
04/06:00am 13.0 7.6 12.1 94 0.5 NW 32 48 17 26 1007.8 1007.8 1.4
04/05:46am 13.7 7.2 11.7 88 1.1 NW 37 57 20 31 1008.2 1008.2 1.2
04/05:30am 14.1 8.5 11.4 84 1.4 NW 32 43 17 23 1007.9 1007.9 1.0
04/05:00am 13.7 8.8 12.6 93 0.6 NW 30 44 16 24 1008.3 1008.3 1.0
04/04:40am 13.3 6.9 12.0 92 0.7 NW 37 50 20 27 1008.6 1008.6 1.0
04/04:30am 13.2 6.9 12.3 94 0.5 WNW 37 48 20 26 1008.6 1008.6 1.0
04/04:15am 13.7 8.2 11.7 88 1.1 NW 32 50 17 27 1008.7 1008.7 0.8
04/04:12am 13.9 8.3 11.6 86 1.2 NW 32 50 17 27 1008.6 1008.6 0.2
04/04:00am 13.6 7.1 11.7 88 1.0 NNW 37 48 20 26 1008.6 1008.6 0.2
04/03:30am 13.9 8.7 10.3 79 1.9 NNW 28 44 15 24 1008.7 1008.7 0.2
04/03:00am 13.3 7.8 10.5 83 1.5 NNW 30 41 16 22 1009.4 1009.4 0.2
04/02:37am 12.6 7.2 10.8 89 0.9 NNW 30 43 16 23 1009.7 1009.7 0.2
04/02:30am 12.5 7.2 11.1 91 0.7 NW 30 43 16 23 1009.9 1009.9 0.2
04/02:23am 12.3 5.5 10.7 90 0.8 NW 37 56 20 30 1010.2 1010.2 0.2
04/02:16am 13.0 4.9 10.2 83 1.4 WNW 43 56 23 30 1010.3 1010.3 0.0
04/02:00am 14.7 7.5 7.7 63 3.5 NW 35 50 19 27 1010.4 1010.4 0.0
04/01:50am 14.8 8.2 7.8 63 3.5 NW 32 50 17 27 1010.4 1010.4 0.0
04/01:30am 14.6 8.0 7.6 63 3.5 NW 32 43 17 23 1010.4 1010.4 0.0
04/01:00am 14.4 8.0 8.6 68 2.9 NW 32 43 17 23 1010.8 1010.8 0.0
04/12:30am 13.6 8.7 9.8 78 2.0 NW 26 37 14 20 1011.3 1011.3 0.0
04/12:00am 12.9 6.2 9.7 81 1.6 NW 35 52 19 28 1011.8 1011.8 0.0
 
Date/Time
EDT
Temp
°C
App
Temp
°C
Dew
Point
Rel
Hum
%
Delta-T
°C
Wind Press
QNH
hPa
Press
MSL
hPa
Rain
since 9 am
mm
Dir
 
Spd
km/h
Gust
km/h
Spd
kts
Gust
kts
03/11:30pm 14.6 8.3 7.6 63 3.5 NW 30 44 16 24 1012.0 1012.0 0.0
03/11:00pm 14.7 8.2 6.5 58 4.0 NNW 30 39 16 21 1012.1 1012.1 0.0
03/10:30pm 14.5 8.3 8.0 65 3.2 NW 30 41 16 22 1012.5 1012.5 0.0
03/10:00pm 14.2 8.2 8.6 69 2.8 NW 30 41 16 22 1012.8 1012.8 0.0
03/09:30pm 14.4 8.7 8.4 67 3.0 NW 28 39 15 21 1012.8 1012.8 0.0
03/09:00pm 14.1 10.0 7.9 66 3.1 NNW 19 26 10 14 1012.8 1012.8 0.0
03/08:30pm 14.0 9.6 7.5 65 3.2 NNW 20 28 11 15 1013.0 1013.0 0.0
03/08:00pm 14.0 9.1 7.1 63 3.4 NW 22 28 12 15 1013.2 1013.2 0.0
03/07:30pm 14.3 9.3 6.4 59 3.8 NW 22 30 12 16 1013.3 1013.3 0.0
03/07:00pm 14.8 10.3 6.9 59 3.9 NW 20 30 11 16 1013.4 1013.4 0.0
03/06:30pm 14.7 9.3 6.5 58 4.0 NW 24 37 13 20 1013.7 1013.7 0.0
03/06:00pm 15.3 8.6 5.8 53 4.6 NW 30 41 16 22 1013.8 1013.8 0.0
03/05:30pm 16.6 10.7 7.3 54 4.6 NW 28 35 15 19 1013.8 1013.8 0.0
03/05:00pm 15.7 9.0 7.2 57 4.2 NW 32 37 17 20 1013.8 1013.8 0.0
03/04:30pm 16.3 10.5 7.8 57 4.3 NW 28 41 15 22 1014.2 1014.2 0.0
03/04:00pm 16.0 10.0 7.2 56 4.4 NW 28 35 15 19 1014.4 1014.4 0.0
03/03:30pm 17.4 11.4 6.9 50 5.2 NW 28 35 15 19 1014.5 1014.5 0.0
03/03:00pm 17.2 11.9 7.0 51 5.1 NW 24 32 13 17 1014.7 1014.7 0.0
03/02:30pm 17.5 13.1 7.5 52 5.0 NNW 20 28 11 15 1014.8 1014.8 0.0
03/02:00pm 16.9 12.7 7.3 53 4.8 NW 19 26 10 14 1015.1 1015.1 0.0
03/01:30pm 16.9 13.5 7.8 55 4.6 NNW 15 20 8 11 1015.4 1015.4 0.0
03/01:00pm 16.6 13.7 6.7 52 4.9 NW 11 20 6 11 1015.7 1015.6 0.0
03/12:30pm 16.9 13.6 8.1 56 4.5 WNW 15 24 8 13 1016.0 1015.9 0.0
03/12:00pm 16.5 13.2 8.0 57 4.3 W 15 24 8 13 1016.3 1016.2 0.0
03/11:30am 15.8 12.6 6.8 55 4.4 W 13 20 7 11 1016.3 1016.2 0.0
03/11:00am 15.0 11.9 7.3 60 3.8 W 13 20 7 11 1016.4 1016.3 0.0
03/10:30am 14.7 11.2 7.3 61 3.6 WSW 15 20 8 11 1016.3 1016.2 0.0
03/10:00am 14.8 11.9 8.1 64 3.4 WSW 13 20 7 11 1016.0 1015.9 0.0
03/09:30am 14.8 12.2 9.2 69 2.9 SW 13 19 7 10 1015.7 1015.6 0.0
03/09:00am 13.6 12.4 10.2 80 1.8 SW 7 11 4 6 1015.7 1015.6 2.8
03/08:30am 12.2 12.0 10.3 88 1.0 SW 2 7 1 4 1015.5 1015.5 2.8
03/08:00am 10.9 9.5 8.8 87 1.0 SSW 6 7 3 4 1015.3 1015.3 2.8
03/07:30am 10.5 10.2 8.8 89 0.8 CALM 0 9 0 5 1014.9 1014.9 2.8
03/07:00am 10.8 9.6 9.4 91 0.7 SW 6 9 3 5 1014.7 1014.7 2.8
03/06:30am 11.4 9.4 10.1 92 0.7 SW 11 13 6 7 1014.5 1014.5 2.6
03/06:00am 11.6 9.4 10.7 94 0.5 SW 13 15 7 8 1014.3 1014.3 2.6
03/05:30am 12.2 10.2 11.4 95 0.4 SW 13 17 7 9 1014.1 1014.1 2.6
03/05:00am 12.6 11.9 12.1 97 0.3 SW 7 13 4 7 1013.8 1013.8 2.6
03/04:52am 12.7 12.3 12.4 98 0.2 SW 6 7 3 4 1013.7 1013.7 2.6
03/04:30am 12.8 11.5 12.6 99 0.1 W 11 19 6 10 1013.7 1013.7 2.6
03/04:00am 12.9 12.6 12.7 99 0.1 W 6 9 3 5 1013.5 1013.5 1.8
03/03:34am 13.0 12.2 12.8 99 0.1 WNW 9 13 5 7 1013.4 1013.4 1.8
03/03:30am 13.0 12.2 12.8 99 0.1 W 9 13 5 7 1013.5 1013.5 1.8
03/03:14am 13.0 11.4 12.8 99 0.1 WSW 13 15 7 8 1013.5 1013.5 1.8
03/03:00am 13.0 10.6 12.8 99 0.1 WSW 17 24 9 13 1013.6 1013.6 1.6
03/02:30am 12.9 11.6 12.6 98 0.2 WNW 11 15 6 8 1013.6 1013.6 1.6
03/02:21am 12.8 10.7 12.3 97 0.3 WNW 15 20 8 11 1013.8 1013.8 1.6
03/02:16am 12.8 10.7 12.3 97 0.3 WNW 15 20 8 11 1013.8 1013.8 1.6
03/02:03am 12.9 9.8 12.1 95 0.4 W 20 28 11 15 1014.0 1014.0 1.6
03/02:00am 12.8 9.8 11.9 94 0.5 WSW 19 28 10 15 1014.0 1014.0 1.4
03/01:45am 12.9 10.0 11.0 88 1.0 WNW 17 28 9 15 1014.1 1014.1 0.4
03/01:30am 13.3 10.1 10.1 81 1.7 N 17 22 9 12 1013.8 1013.8 0.0
03/01:00am 12.5 9.9 9.5 82 1.5 NNE 13 19 7 10 1014.0 1014.0 0.0
03/12:30am 12.5 10.3 9.5 82 1.5 NNE 11 15 6 8 1014.3 1014.3 0.0
03/12:00am 12.4 10.2 9.4 82 1.5 NNE 11 15 6 8 1014.6 1014.6 0.0
 
Date/Time
EDT
Temp
°C
App
Temp
°C
Dew
Point
Rel
Hum
%
Delta-T
°C
Wind Press
QNH
hPa
Press
MSL
hPa
Rain
since 9 am
mm
Dir
 
Spd
km/h
Gust
km/h
Spd
kts
Gust
kts
02/11:30pm 12.4 9.8 9.4 82 1.5 NNE 13 19 7 10 1014.6 1014.6 0.0
02/11:00pm 12.9 10.7 9.5 80 1.7 NNE 11 17 6 9 1014.9 1014.9 0.0
02/10:30pm 12.8 10.6 9.3 79 1.8 NNE 11 15 6 8 1015.3 1015.3 0.0
02/10:00pm 13.0 10.8 9.3 78 1.9 N 11 17 6 9 1015.3 1015.3 0.0
02/09:30pm 12.9 10.2 9.0 77 2.0 N 13 19 7 10 1015.2 1015.2 0.0
02/09:00pm 13.2 10.1 8.7 74 2.3 N 15 26 8 14 1015.1 1015.1 0.0
02/08:30pm 14.1 9.7 9.1 72 2.5 NW 22 30 12 16 1014.9 1014.9 0.0
02/08:00pm 14.0 9.2 8.8 71 2.6 NNW 24 33 13 18 1014.6 1014.6 0.0
02/07:30pm 14.4 9.6 9.0 70 2.7 NNW 24 37 13 20 1014.2 1014.2 0.0
02/07:00pm 14.8 8.8 8.5 66 3.2 NW 30 41 16 22 1014.4 1014.4 0.0
02/06:30pm 14.7 8.8 9.1 69 2.9 NW 30 43 16 23 1014.1 1014.1 0.0
02/06:00pm 14.9 9.9 9.5 70 2.8 NW 26 33 14 18 1013.8 1013.8 0.0
02/05:30pm 15.4 10.3 9.1 66 3.2 NW 26 37 14 20 1013.7 1013.7 0.0
02/05:00pm 15.4 10.7 9.1 66 3.2 NW 24 37 13 20 1013.7 1013.7 0.0
02/04:30pm 14.9 10.0 8.4 65 3.3 NNW 24 32 13 17 1013.9 1013.9 0.0
02/04:00pm 14.8 10.0 8.7 67 3.1 NNW 24 32 13 17 1014.3 1014.3 0.0
02/03:30pm 14.9 10.4 8.6 66 3.2 NW 22 33 12 18 1014.6 1014.6 0.0
02/03:00pm 15.5 10.7 9.0 65 3.3 NW 24 32 13 17 1015.3 1015.3 0.0
02/02:30pm 15.4 11.4 9.1 66 3.2 NW 20 26 11 14 1015.3 1015.3 0.0
02/02:00pm 15.5 11.0 8.5 63 3.5 NW 22 30 12 16 1015.9 1015.8 0.0
02/01:30pm 16.3 12.9 9.0 62 3.8 NW 17 26 9 14 1016.0 1015.9 0.0
02/01:00pm 15.3 11.2 7.8 61 3.7 NW 19 26 10 14 1016.3 1016.2 0.0
02/12:30pm 15.7 11.9 7.5 58 4.1 NW 17 24 9 13 1016.8 1016.7 0.0
02/12:00pm 14.9 11.9 6.2 56 4.2 WNW 11 19 6 10 1017.2 1017.1 0.0
02/11:30am 15.6 13.2 6.9 56 4.3 NW 9 15 5 8 1017.7 1017.6 0.0
02/11:00am 14.8 12.8 6.1 56 4.2 NW 6 9 3 5 1018.1 1018.0 0.0
02/10:30am 13.6 12.6 7.4 66 3.0 E 2 7 1 4 1018.2 1018.1 0.0
02/10:00am 12.4 10.5 7.5 72 2.4 NE 7 9 4 5 1018.2 1018.1 0.0
02/09:30am 11.1 9.0 6.8 75 2.0 NE 7 9 4 5 1018.2 1018.1 0.0
02/09:00am 10.2 8.3 6.9 80 1.6 ENE 6 9 3 5 1018.3 1018.2 2.2
02/08:30am 8.7 6.6 6.8 88 0.9 ENE 7 11 4 6 1018.3 1018.2 2.2
02/08:00am 7.5 4.8 5.8 89 0.8 NE 9 11 5 6 1018.4 1018.3 2.2
02/07:30am 6.7 4.4 5.5 92 0.5 NE 7 11 4 6 1018.3 1018.2 2.2
02/07:00am 5.8 3.3 4.6 92 0.5 NE 7 11 4 6 1018.3 1018.2 2.2
02/06:30am 5.5 2.5 4.3 92 0.5 NE 9 13 5 7 1018.0 1017.9 2.2
02/06:00am 5.6 3.0 4.4 92 0.5 NE 7 11 4 6 1017.8 1017.7 2.2
02/05:30am 5.3 2.7 4.1 92 0.5 ENE 7 11 4 6 1017.8 1017.7 2.2
02/05:00am 5.6 3.0 4.4 92 0.5 NNE 7 9 4 5 1018.4 1018.3 2.2
02/04:30am 5.5 2.9 4.2 91 0.6 NE 7 13 4 7 1018.3 1018.2 2.2
02/04:00am 5.9 2.6 4.5 91 0.6 NNE 11 13 6 7 1018.6 1018.5 2.2
02/03:30am 6.0 3.4 4.3 89 0.7 NNE 7 11 4 6 1018.6 1018.5 2.2
02/03:00am 6.6 4.1 4.8 88 0.8 NNE 7 13 4 7 1018.6 1018.5 2.2
02/02:30am 7.0 4.2 5.2 88 0.8 NE 9 13 5 7 1018.4 1018.3 2.2
02/02:00am 7.2 4.4 5.2 87 0.9 NE 9 11 5 6 1018.5 1018.4 2.2
02/01:30am 7.5 4.7 5.3 86 1.0 NE 9 11 5 6 1018.6 1018.5 2.2
02/01:00am 8.0 5.2 5.3 83 1.2 NNE 9 13 5 7 1018.5 1018.4 2.2
02/12:30am 9.0 6.6 5.4 78 1.6 NNE 7 11 4 6 1018.4 1018.3 2.2
02/12:00am 9.9 7.2 5.7 75 1.9 NNE 9 11 5 6 1018.4 1018.3 2.2
 
Date/Time
EDT
Temp
°C
App
Temp
°C
Dew
Point
Rel
Hum
%
Delta-T
°C
Wind Press
QNH
hPa
Press
MSL
hPa
Rain
since 9 am
mm
Dir
 
Spd
km/h
Gust
km/h
Spd
kts
Gust
kts
01/11:30pm 10.2 7.5 5.8 74 2.0 NE 9 9 5 5 1018.6 1018.5 2.2
01/11:00pm 10.3 8.1 5.5 72 2.2 ENE 6 7 3 4 1018.7 1018.6 2.2
01/10:30pm 10.3 8.1 5.5 72 2.2 ENE 6 9 3 5 1018.7 1018.6 2.2
01/10:00pm 10.8 8.5 5.6 70 2.4 SE 7 9 4 5 1018.6 1018.5 2.2
01/09:30pm 10.5 8.0 4.9 68 2.5 SSE 7 11 4 6 1018.6 1018.5 2.2
01/09:00pm 10.0 6.4 5.0 71 2.3 SSW 13 17 7 9 1018.6 1018.5 2.2
01/08:30pm 10.4 6.8 4.8 68 2.5 SSW 13 20 7 11 1017.9 1017.8 2.2
01/08:00pm 11.2 6.8 4.7 64 2.9 SSW 17 20 9 11 1017.9 1017.8 2.2
01/07:30pm 12.0 7.8 5.6 65 3.0 SSW 17 20 9 11 1017.6 1017.5 2.2
01/07:00pm 12.5 8.3 5.7 63 3.2 SSW 17 24 9 13 1017.1 1017.0 2.2
01/06:30pm 12.8 8.6 5.7 62 3.3 SSW 17 26 9 14 1017.0 1016.9 2.2
01/06:00pm 13.4 8.7 5.3 58 3.8 SW 19 32 10 17 1016.6 1016.5 2.2
01/05:30pm 14.2 9.7 6.1 58 3.9 SSW 19 32 10 17 1016.2 1016.1 2.2
01/05:00pm 14.4 9.9 7.0 61 3.6 SSW 20 28 11 15 1016.0 1015.9 2.2
01/04:30pm 15.0 9.9 7.5 61 3.7 SSW 24 35 13 19 1015.9 1015.8 2.2
01/04:00pm 15.3 9.7 7.3 59 4.0 SW 26 39 14 21 1015.4 1015.4 2.2
01/03:30pm 15.2 9.1 8.2 63 3.5 SW 30 39 16 21 1015.0 1015.0 2.2
01/03:00pm 15.0 9.8 8.7 66 3.2 SSW 26 35 14 19 1014.6 1014.6 2.2
01/02:30pm 16.0 10.3 9.7 66 3.3 SSW 30 41 16 22 1014.2 1014.2 2.2
01/02:00pm 14.1 7.8 9.1 72 2.5 SSW 32 43 17 23 1013.6 1013.6 2.2
01/01:30pm 14.5 10.2 9.5 72 2.6 S 22 35 12 19 1013.2 1013.2 2.2
01/01:00pm 14.3 9.1 11.6 84 1.4 SSW 30 41 16 22 1013.0 1013.0 2.2
01/12:46pm 14.8 9.7 13.2 90 0.9 SSW 32 46 17 25 1012.7 1012.7 2.2
01/12:30pm 12.7 7.2 10.6 87 1.1 SSW 30 54 16 29 1012.5 1012.5 2.2
01/12:28pm 13.4 8.4 10.8 84 1.4 S 28 54 15 29 1012.4 1012.4 2.0
01/12:00pm 14.4 8.9 11.7 84 1.5 SW 32 43 17 23 1012.1 1012.1 1.8
01/11:30am 15.0 12.1 12.9 87 1.2 SSW 20 32 11 17 1011.5 1011.5 1.8
01/11:12am 13.2 10.3 12.3 94 0.5 SSW 19 26 10 14 1011.3 1011.3 1.8

Other Formats:

Comma delimited format used in spreadsheet applications
http://www.bom.gov.au/fwo/IDT60801/IDT60801.94956.axf

JavaScript Object Notation format (JSON) in row-major order
http://www.bom.gov.au/fwo/IDT60801/IDT60801.94956.json